Time;durP1;ratioP1;P1;durP2;ratioP2;P2;SDS_P1;SDS_P2;PMS_P1;PMS_P2;Temp;Humidity;BMP_temperature;BMP_pressure;BME280_temperature;BME280_humidity;BME280_pressure;Samples;Min_cycle;Max_cycle;Signal;HPM_P1;HPM_P2
2023/12/11 00:01:07;;;;;;;32.97;6.47;;;;;;;;;;5020016;28;20888;-68
2023/12/11 00:03:32;;;;;;;61.77;36.87;;;;;;;;;;5009689;28;20412;-69
2023/12/11 00:05:58;;;;;;;27.77;6.30;;;;;;;;;;5009002;28;20404;-69
2023/12/11 00:08:23;;;;;;;27.53;5.90;;;;;;;;;;5008298;28;20396;-69
2023/12/11 00:10:49;;;;;;;28.77;5.73;;;;;;;;;;5008965;28;20517;-69
2023/12/11 00:13:14;;;;;;;28.15;5.82;;;;;;;;;;5008783;28;20405;-68
2023/12/11 00:15:39;;;;;;;27.57;5.97;;;;;;;;;;5008855;28;20445;-69
2023/12/11 00:18:05;;;;;;;25.27;5.37;;;;;;;;;;5008020;28;20409;-68
2023/12/11 00:20:31;;;;;;;35.67;7.53;;;;;;;;;;5013270;28;20899;-69
2023/12/11 00:22:56;;;;;;;28.43;6.30;;;;;;;;;;5010523;28;20405;-69
2023/12/11 00:25:21;;;;;;;29.40;5.33;;;;;;;;;;5013159;28;20476;-69
2023/12/11 00:27:47;;;;;;;32.75;6.18;;;;;;;;;;5009125;28;20425;-69
2023/12/11 00:30:14;;;;;;;33.00;6.50;;;;;;;;;;5010453;28;20428;-68
2023/12/11 00:32:39;;;;;;;32.03;6.23;;;;;;;;;;5008842;28;20412;-68
2023/12/11 00:35:05;;;;;;;34.08;6.65;;;;;;;;;;5007675;28;20409;-68
2023/12/11 00:37:30;;;;;;;30.13;5.93;;;;;;;;;;5008678;28;20397;-68
2023/12/11 00:39:55;;;;;;;30.93;5.80;;;;;;;;;;5008444;28;20405;-69
2023/12/11 00:42:21;;;;;;;32.13;6.47;;;;;;;;;;5008095;28;20432;-68
2023/12/11 00:44:46;;;;;;;29.57;6.07;;;;;;;;;;5008747;28;20403;-68
2023/12/11 00:47:11;;;;;;;31.03;6.10;;;;;;;;;;5008264;28;20912;-68
2023/12/11 00:49:37;;;;;;;32.83;6.67;;;;;;;;;;5003510;28;20396;-68
2023/12/11 00:52:02;;;;;;;34.87;6.57;;;;;;;;;;5008134;28;20947;-67
2023/12/11 00:54:27;;;;;;;34.28;6.88;;;;;;;;;;5008265;28;20401;-68
2023/12/11 00:56:53;;;;;;;30.67;5.90;;;;;;;;;;5016460;28;20482;-68
2023/12/11 00:59:18;;;;;;;35.37;6.63;;;;;;;;;;5027861;28;20493;-68
2023/12/11 01:01:43;;;;;;;37.47;6.57;;;;;;;;;;5014780;28;20401;-68
2023/12/11 01:04:09;;;;;;;31.93;6.10;;;;;;;;;;5007756;28;20485;-68
2023/12/11 01:06:34;;;;;;;32.80;6.13;;;;;;;;;;5007071;28;20529;-68
2023/12/11 01:08:59;;;;;;;30.50;5.87;;;;;;;;;;5008094;28;20462;-68
2023/12/11 01:11:25;;;;;;;32.73;6.67;;;;;;;;;;5007552;28;21139;-68
2023/12/11 01:13:50;;;;;;;32.23;6.37;;;;;;;;;;5008515;28;20412;-68
2023/12/11 01:16:15;;;;;;;29.97;5.70;;;;;;;;;;5007951;28;20800;-68
2023/12/11 01:18:41;;;;;;;35.13;6.50;;;;;;;;;;5008089;28;20476;-68
2023/12/11 01:21:06;;;;;;;35.78;6.00;;;;;;;;;;5007556;28;20507;-68
2023/12/11 01:23:32;;;;;;;31.87;6.20;;;;;;;;;;5008635;28;20397;-68
2023/12/11 01:25:57;;;;;;;33.25;6.95;;;;;;;;;;5007717;28;20412;-69
2023/12/11 01:28:23;;;;;;;28.60;6.37;;;;;;;;;;5007566;28;20400;-68
2023/12/11 01:30:48;;;;;;;34.43;6.23;;;;;;;;;;5008272;28;20393;-68
2023/12/11 01:33:13;;;;;;;30.80;6.07;;;;;;;;;;5007583;28;20401;-68
2023/12/11 01:35:39;;;;;;;34.20;6.10;;;;;;;;;;5007773;28;20400;-69
2023/12/11 01:38:04;;;;;;;36.00;6.25;;;;;;;;;;5006868;28;20905;-68
2023/12/11 01:40:30;;;;;;;31.10;6.57;;;;;;;;;;5008117;28;20779;-68
2023/12/11 01:42:55;;;;;;;32.63;6.17;;;;;;;;;;5008214;28;20401;-68
2023/12/11 01:45:20;;;;;;;30.63;6.47;;;;;;;;;;5007065;28;20885;-68
2023/12/11 01:47:46;;;;;;;32.03;6.37;;;;;;;;;;5008312;28;20481;-68
2023/12/11 01:50:11;;;;;;;33.50;6.73;;;;;;;;;;5002756;28;20405;-68
2023/12/11 01:52:36;;;;;;;31.53;5.90;;;;;;;;;;5007376;28;20401;-68
2023/12/11 01:55:02;;;;;;;25.77;5.93;;;;;;;;;;5006222;28;20416;-67
2023/12/11 01:57:28;;;;;;;29.10;5.47;;;;;;;;;;5020675;28;20746;-68
2023/12/11 01:59:53;;;;;;;31.30;6.67;;;;;;;;;;5026149;28;20395;-68
2023/12/11 02:02:20;;;;;;;32.90;6.32;;;;;;;;;;5009307;28;20791;-68
2023/12/11 02:04:45;;;;;;;31.30;5.70;;;;;;;;;;5007817;28;20943;-68
2023/12/11 02:07:11;;;;;;;27.95;5.75;;;;;;;;;;5007003;28;20396;-68
2023/12/11 02:09:36;;;;;;;28.20;5.83;;;;;;;;;;5007817;28;20417;-68
2023/12/11 02:12:02;;;;;;;31.60;6.43;;;;;;;;;;5007835;28;20411;-67
2023/12/11 02:14:27;;;;;;;26.65;5.68;;;;;;;;;;5009754;28;20405;-68
2023/12/11 02:16:53;;;;;;;29.47;5.53;;;;;;;;;;5011512;28;20428;-68
2023/12/11 02:19:18;;;;;;;32.70;6.13;;;;;;;;;;5010833;28;20432;-68
2023/12/11 02:21:43;;;;;;;32.38;5.95;;;;;;;;;;5010584;28;20753;-69
2023/12/11 02:24:10;;;;;;;31.53;5.93;;;;;;;;;;5010752;28;20486;-69
2023/12/11 02:26:35;;;;;;;33.55;6.10;;;;;;;;;;5010984;28;20451;-69
2023/12/11 02:29:01;;;;;;;30.07;6.17;;;;;;;;;;5010239;28;20427;-69
2023/12/11 02:31:26;;;;;;;32.95;6.03;;;;;;;;;;5010751;28;20417;-71
2023/12/11 02:33:51;;;;;;;32.03;6.10;;;;;;;;;;5009948;28;20398;-70
2023/12/11 03:51:21;;;;;;;18.30;3.50;;;;;;;;;;5289019;22;20849;-62
2023/12/11 03:53:46;;;;;;;19.30;4.00;;;;;;;;;;4945112;28;20418;-62
2023/12/11 03:56:11;;;;;;;19.07;3.63;;;;;;;;;;4962702;28;20408;-62
2023/12/11 03:58:37;;;;;;;21.20;4.37;;;;;;;;;;4962279;28;20487;-62
2023/12/11 04:01:02;;;;;;;23.63;4.67;;;;;;;;;;4962817;28;20516;-62
2023/12/11 04:03:27;;;;;;;19.05;4.07;;;;;;;;;;4959386;28;20582;-62
2023/12/11 04:05:53;;;;;;;20.30;3.60;;;;;;;;;;4955374;28;20628;-63
2023/12/11 04:08:18;;;;;;;19.87;3.70;;;;;;;;;;4955199;28;20990;-62
2023/12/11 04:10:44;;;;;;;21.00;3.72;;;;;;;;;;4959674;28;20811;-62
2023/12/11 04:13:09;;;;;;;18.30;3.50;;;;;;;;;;4961950;28;20408;-62
2023/12/11 04:15:34;;;;;;;16.40;3.47;;;;;;;;;;4963018;28;20406;-62
2023/12/11 04:18:00;;;;;;;17.57;3.60;;;;;;;;;;4963142;28;20407;-62
2023/12/11 04:20:25;;;;;;;18.77;3.72;;;;;;;;;;4962224;28;20950;-62
2023/12/11 04:22:50;;;;;;;18.43;3.27;;;;;;;;;;4963139;28;20451;-62
2023/12/11 04:25:16;;;;;;;15.40;3.27;;;;;;;;;;4960883;28;20420;-62
2023/12/11 04:27:41;;;;;;;15.87;3.40;;;;;;;;;;4954470;28;21496;-62
2023/12/11 04:30:07;;;;;;;16.83;3.87;;;;;;;;;;4954303;28;20440;-63
2023/12/11 04:32:32;;;;;;;17.42;3.25;;;;;;;;;;4956670;28;20929;-63
2023/12/11 04:34:57;;;;;;;19.43;3.70;;;;;;;;;;4976680;28;20455;-63
2023/12/11 04:37:23;;;;;;;21.17;4.17;;;;;;;;;;4962382;28;20409;-62
2023/12/11 04:39:48;;;;;;;19.03;3.70;;;;;;;;;;4962922;28;20396;-62
2023/12/11 04:42:13;;;;;;;21.60;3.92;;;;;;;;;;4961785;28;20403;-63
2023/12/11 04:44:39;;;;;;;21.13;4.47;;;;;;;;;;4962531;28;20396;-62
2023/12/11 04:47:04;;;;;;;20.63;3.93;;;;;;;;;;4962261;28;20415;-63
2023/12/11 04:49:30;;;;;;;20.57;4.10;;;;;;;;;;4950650;28;20404;-62
2023/12/11 04:51:55;;;;;;;23.77;4.37;;;;;;;;;;4954816;28;21429;-62
2023/12/11 04:54:20;;;;;;;22.97;4.30;;;;;;;;;;4954784;28;20403;-62
2023/12/11 04:56:46;;;;;;;24.37;4.60;;;;;;;;;;4961041;28;20511;-62
2023/12/11 04:59:11;;;;;;;27.40;5.57;;;;;;;;;;4962328;28;21499;-63
2023/12/11 05:01:36;;;;;;;24.92;5.10;;;;;;;;;;4961806;28;20510;-62
2023/12/11 05:04:02;;;;;;;23.70;4.70;;;;;;;;;;4961796;28;20404;-63
2023/12/11 05:06:27;;;;;;;27.00;5.27;;;;;;;;;;4962683;28;20454;-62
2023/12/11 05:08:52;;;;;;;23.67;4.50;;;;;;;;;;4961724;28;20415;-62
2023/12/11 05:11:18;;;;;;;26.27;5.70;;;;;;;;;;4957448;28;20416;-62
2023/12/11 05:13:43;;;;;;;21.58;4.22;;;;;;;;;;4954473;28;20521;-62
2023/12/11 05:16:08;;;;;;;33.03;8.60;;;;;;;;;;4953893;28;20440;-62
2023/12/11 05:18:34;;;;;;;27.13;5.30;;;;;;;;;;4959620;28;20725;-62
2023/12/11 05:21:04;;;;;;;27.60;5.27;;;;;;;;;;4962422;28;20470;-62
2023/12/11 05:23:30;;;;;;;30.30;6.38;;;;;;;;;;4961189;28;20891;-62
2023/12/11 05:25:55;;;;;;;26.03;5.50;;;;;;;;;;4976927;28;20436;-62
2023/12/11 05:28:20;;;;;;;26.33;5.10;;;;;;;;;;4961673;28;20907;-62
2023/12/11 05:30:46;;;;;;;27.57;5.20;;;;;;;;;;4961416;28;20396;-62
2023/12/11 05:33:11;;;;;;;27.53;5.67;;;;;;;;;;4958846;28;21072;-62
2023/12/11 05:35:36;;;;;;;24.57;5.10;;;;;;;;;;4954893;28;20418;-63
2023/12/11 05:38:02;;;;;;;26.07;4.97;;;;;;;;;;4953525;28;20401;-63
2023/12/11 05:40:27;;;;;;;23.60;5.03;;;;;;;;;;4957886;28;20406;-62
2023/12/11 05:42:52;;;;;;;29.97;6.40;;;;;;;;;;4962067;28;20487;-62
2023/12/11 05:45:18;;;;;;;28.58;5.35;;;;;;;;;;4960941;28;20529;-62
2023/12/11 05:47:43;;;;;;;29.33;5.47;;;;;;;;;;4963577;28;20408;-62
2023/12/11 05:50:09;;;;;;;29.73;7.27;;;;;;;;;;4960863;28;20496;-63
2023/12/11 05:52:34;;;;;;;28.25;5.32;;;;;;;;;;4964838;28;20440;-62
2023/12/11 05:55:00;;;;;;;31.37;5.53;;;;;;;;;;4964528;28;20515;-62
2023/12/11 05:57:25;;;;;;;29.20;4.87;;;;;;;;;;4957594;28;20408;-62
2023/12/11 05:59:51;;;;;;;25.80;4.80;;;;;;;;;;4957311;28;20395;-62
2023/12/11 06:02:16;;;;;;;28.90;5.07;;;;;;;;;;4958706;28;20402;-62
2023/12/11 06:04:41;;;;;;;28.57;5.47;;;;;;;;;;4965725;28;20514;-62
2023/12/11 06:07:07;;;;;;;29.33;5.10;;;;;;;;;;4968510;28;20440;-62
2023/12/11 06:09:32;;;;;;;29.47;4.60;;;;;;;;;;4957705;28;20412;-63
2023/12/11 06:11:57;;;;;;;24.67;5.10;;;;;;;;;;4957300;28;20415;-62
2023/12/11 06:14:23;;;;;;;28.73;5.50;;;;;;;;;;4956844;28;20481;-62
2023/12/11 06:16:48;;;;;;;25.67;5.40;;;;;;;;;;4964550;28;20483;-62
2023/12/11 06:19:14;;;;;;;24.30;4.53;;;;;;;;;;4964182;28;20489;-63
2023/12/11 06:21:40;;;;;;;25.23;4.43;;;;;;;;;;4965207;28;20969;-62
2023/12/11 06:24:06;;;;;;;25.90;4.45;;;;;;;;;;4964989;28;20971;-63
2023/12/11 06:26:32;;;;;;;24.43;4.80;;;;;;;;;;4964381;28;20523;-63
2023/12/11 06:28:59;;;;;;;23.90;4.38;;;;;;;;;;4964642;28;20412;-62
2023/12/11 06:31:25;;;;;;;21.33;4.75;;;;;;;;;;4959410;28;20423;-62
2023/12/11 06:33:50;;;;;;;27.40;5.13;;;;;;;;;;4956393;28;20412;-62
2023/12/11 06:36:15;;;;;;;23.27;4.20;;;;;;;;;;4957364;28;20471;-63
2023/12/11 06:38:41;;;;;;;25.90;4.93;;;;;;;;;;4963008;28;20408;-62
2023/12/11 06:41:06;;;;;;;21.43;4.23;;;;;;;;;;4978676;28;20900;-63
2023/12/11 06:43:32;;;;;;;22.23;4.13;;;;;;;;;;4964519;28;20843;-63
2023/12/11 06:45:57;;;;;;;24.88;4.78;;;;;;;;;;4964597;28;20559;-63
2023/12/11 06:48:23;;;;;;;20.90;3.93;;;;;;;;;;4959237;28;20412;-62
2023/12/11 06:50:48;;;;;;;23.73;4.50;;;;;;;;;;4964884;28;20404;-62
2023/12/11 06:53:13;;;;;;;21.92;4.40;;;;;;;;;;4960806;28;20417;-63
2023/12/11 06:55:38;;;;;;;20.97;4.40;;;;;;;;;;4956452;28;20404;-62
2023/12/11 06:58:04;;;;;;;20.97;3.77;;;;;;;;;;4955578;28;20412;-63
2023/12/11 07:00:29;;;;;;;24.93;3.83;;;;;;;;;;4960330;28;20877;-63
2023/12/11 07:02:55;;;;;;;25.65;4.45;;;;;;;;;;4963488;28;20412;-62
2023/12/11 07:05:20;;;;;;;22.50;4.70;;;;;;;;;;4963998;28;20419;-63
2023/12/11 07:07:45;;;;;;;23.93;4.27;;;;;;;;;;4964616;28;20462;-62
2023/12/11 07:10:11;;;;;;;23.63;4.43;;;;;;;;;;4962685;28;20412;-63
2023/12/11 07:12:40;;;;;;;24.27;4.13;;;;;;;;;;4965804;28;20419;-62
2023/12/11 07:15:05;;;;;;;23.30;4.00;;;;;;;;;;4957990;28;20419;-62
2023/12/11 07:17:31;;;;;;;24.15;4.03;;;;;;;;;;4957188;28;20412;-62
2023/12/11 07:19:56;;;;;;;21.03;3.90;;;;;;;;;;4980850;28;20420;-61
2023/12/11 07:22:21;;;;;;;22.43;4.33;;;;;;;;;;4951141;28;20418;-61
2023/12/11 07:24:47;;;;;;;19.92;4.00;;;;;;;;;;4953757;28;20899;-61
2023/12/11 07:27:12;;;;;;;20.10;4.00;;;;;;;;;;4970060;28;20416;-62
2023/12/11 07:29:38;;;;;;;19.23;3.77;;;;;;;;;;4970027;28;20859;-61
2023/12/11 07:32:03;;;;;;;22.93;4.03;;;;;;;;;;4968712;28;20423;-61
2023/12/11 07:34:29;;;;;;;22.75;3.70;;;;;;;;;;4970632;28;20412;-61
2023/12/11 07:36:54;;;;;;;23.70;4.30;;;;;;;;;;4965854;28;20422;-61
2023/12/11 07:39:20;;;;;;;22.02;4.40;;;;;;;;;;4969893;28;20973;-62
2023/12/11 07:41:45;;;;;;;22.97;4.40;;;;;;;;;;4983168;28;20456;-61
2023/12/11 07:44:11;;;;;;;19.30;3.95;;;;;;;;;;4968581;28;20915;-62
2023/12/11 07:46:36;;;;;;;20.97;3.73;;;;;;;;;;4970412;28;20408;-62
2023/12/11 07:49:02;;;;;;;19.10;3.47;;;;;;;;;;4965289;28;20455;-61
2023/12/11 07:51:28;;;;;;;20.17;3.50;;;;;;;;;;4968409;28;20416;-62
2023/12/11 07:53:55;;;;;;;16.95;3.20;;;;;;;;;;4989682;28;20504;-61
2023/12/11 07:56:21;;;;;;;18.05;3.40;;;;;;;;;;4988975;28;20482;-62
2023/12/11 07:58:46;;;;;;;18.33;3.10;;;;;;;;;;4988548;28;20483;-61
2023/12/11 08:01:12;;;;;;;17.77;3.35;;;;;;;;;;5004231;28;20403;-62
2023/12/11 08:03:37;;;;;;;15.97;3.03;;;;;;;;;;4987237;28;20534;-61
2023/12/11 08:06:02;;;;;;;18.30;3.20;;;;;;;;;;4988410;28;20734;-62
2023/12/11 08:08:28;;;;;;;16.70;2.93;;;;;;;;;;4989850;28;20390;-62
2023/12/11 08:10:54;;;;;;;16.02;3.22;;;;;;;;;;4989388;28;20429;-62
2023/12/11 08:13:19;;;;;;;17.03;3.40;;;;;;;;;;4988950;28;20533;-62
2023/12/11 08:15:45;;;;;;;13.17;2.63;;;;;;;;;;4989675;28;20414;-62
2023/12/11 08:18:10;;;;;;;13.07;2.83;;;;;;;;;;4989171;28;20476;-62
2023/12/11 08:20:35;;;;;;;13.27;2.60;;;;;;;;;;4989090;28;20935;-62
2023/12/11 08:23:01;;;;;;;12.93;2.50;;;;;;;;;;4985219;28;20406;-63
2023/12/11 08:25:26;;;;;;;12.13;2.30;;;;;;;;;;4988739;28;20399;-62
2023/12/11 08:27:52;;;;;;;11.80;2.37;;;;;;;;;;4969844;28;20443;-62
2023/12/11 08:30:17;;;;;;;11.43;2.13;;;;;;;;;;4983221;28;20403;-62
2023/12/11 08:32:42;;;;;;;11.07;2.43;;;;;;;;;;5001135;28;20487;-62
2023/12/11 08:35:08;;;;;;;11.40;2.20;;;;;;;;;;4977966;28;21035;-62
2023/12/11 08:37:33;;;;;;;11.82;2.42;;;;;;;;;;4987343;28;20391;-62
2023/12/11 08:39:59;;;;;;;10.07;1.80;;;;;;;;;;4987590;28;20902;-62
2023/12/11 08:42:25;;;;;;;10.37;1.90;;;;;;;;;;4987513;28;20399;-62
2023/12/11 08:44:50;;;;;;;9.40;1.65;;;;;;;;;;4987649;28;20398;-62
2023/12/11 08:47:16;;;;;;;9.77;2.17;;;;;;;;;;4986442;28;20461;-62
2023/12/11 08:49:42;;;;;;;7.85;1.70;;;;;;;;;;4982711;28;20437;-62
2023/12/11 08:52:08;;;;;;;9.18;1.83;;;;;;;;;;4986946;28;20523;-62
2023/12/11 08:54:33;;;;;;;9.27;1.70;;;;;;;;;;4986951;28;20838;-62
2023/12/11 08:56:58;;;;;;;11.75;2.60;;;;;;;;;;4987436;28;20405;-62
2023/12/11 08:59:24;;;;;;;10.67;2.60;;;;;;;;;;4987300;28;20828;-62
2023/12/11 09:01:49;;;;;;;10.27;2.50;;;;;;;;;;5001815;28;20402;-62
2023/12/11 09:04:14;;;;;;;11.40;2.40;;;;;;;;;;4986601;28;20410;-62
2023/12/11 09:06:40;;;;;;;12.17;2.30;;;;;;;;;;4987207;28;20414;-62
2023/12/11 09:09:05;;;;;;;8.70;1.93;;;;;;;;;;4986372;28;20490;-62
2023/12/11 09:11:31;;;;;;;10.53;2.40;;;;;;;;;;4987148;28;20905;-62
2023/12/11 09:13:56;;;;;;;9.53;2.10;;;;;;;;;;4986744;28;20414;-61
2023/12/11 09:16:21;;;;;;;9.90;1.92;;;;;;;;;;4986124;28;20489;-61
2023/12/11 09:18:47;;;;;;;10.47;2.17;;;;;;;;;;4986687;28;20905;-60
2023/12/11 09:21:12;;;;;;;9.87;1.90;;;;;;;;;;4987129;28;20410;-61
2023/12/11 09:23:37;;;;;;;10.83;2.40;;;;;;;;;;4990975;28;20430;-60
2023/12/11 09:26:03;;;;;;;8.23;2.03;;;;;;;;;;4990990;28;20387;-61
2023/12/11 09:28:28;;;;;;;7.25;1.92;;;;;;;;;;4991180;28;20414;-60
2023/12/11 09:30:54;;;;;;;8.67;1.67;;;;;;;;;;4990277;28;20757;-60
2023/12/11 09:33:19;;;;;;;10.60;1.80;;;;;;;;;;4990436;28;20437;-61
2023/12/11 09:35:45;;;;;;;9.50;2.10;;;;;;;;;;4990480;28;20422;-61
2023/12/11 09:38:11;;;;;;;10.70;1.90;;;;;;;;;;4989845;28;20406;-61
2023/12/11 09:40:37;;;;;;;8.48;2.17;;;;;;;;;;4991130;28;20394;-60
2023/12/11 09:43:02;;;;;;;8.57;1.87;;;;;;;;;;4990668;28;20416;-61
2023/12/11 09:45:28;;;;;;;10.00;2.15;;;;;;;;;;4990574;28;20486;-61
2023/12/11 09:47:53;;;;;;;8.83;1.70;;;;;;;;;;4986394;28;20406;-61
2023/12/11 09:50:19;;;;;;;9.00;1.80;;;;;;;;;;4989038;28;20593;-60
2023/12/11 09:52:44;;;;;;;8.85;2.13;;;;;;;;;;4991401;28;20983;-62
2023/12/11 09:55:10;;;;;;;8.37;1.80;;;;;;;;;;4993412;28;20441;-62
2023/12/11 09:57:36;;;;;;;10.77;2.20;;;;;;;;;;4992929;28;20901;-62
2023/12/11 10:00:03;;;;;;;8.13;1.70;;;;;;;;;;4993199;28;20482;-62
2023/12/11 10:02:28;;;;;;;10.05;2.05;;;;;;;;;;4993675;28;20398;-62
2023/12/11 10:05:02;;;;;;;11.33;2.37;;;;;;;;;;4992558;28;20476;-62
2023/12/11 10:07:27;;;;;;;9.30;2.10;;;;;;;;;;4993227;28;20915;-62
2023/12/11 10:09:53;;;;;;;9.87;1.90;;;;;;;;;;4993076;28;20493;-62
2023/12/11 10:12:18;;;;;;;11.70;2.40;;;;;;;;;;4992082;28;20913;-62
2023/12/11 10:14:50;;;;;;;10.90;2.40;;;;;;;;;;4993586;28;20418;-62
2023/12/11 10:17:16;;;;;;;13.05;2.22;;;;;;;;;;5007829;28;20433;-62
2023/12/11 10:19:41;;;;;;;12.77;2.70;;;;;;;;;;4992875;28;20422;-62
2023/12/11 10:22:06;;;;;;;12.20;3.00;;;;;;;;;;4992790;28;20449;-62
2023/12/11 10:24:32;;;;;;;12.00;2.30;;;;;;;;;;4993181;28;20406;-62
2023/12/11 10:26:57;;;;;;;9.73;2.50;;;;;;;;;;4992085;28;20497;-62
2023/12/11 10:29:23;;;;;;;12.93;2.70;;;;;;;;;;4992695;28;20894;-62
2023/12/11 10:31:50;;;;;;;12.82;2.30;;;;;;;;;;4993000;28;20425;-62
2023/12/11 10:34:15;;;;;;;12.20;2.53;;;;;;;;;;5006040;28;20432;-62
2023/12/11 10:36:48;;;;;;;9.70;2.20;;;;;;;;;;4992733;28;20945;-62
2023/12/11 10:39:13;;;;;;;12.75;2.40;;;;;;;;;;4992349;28;20407;-62
2023/12/11 10:41:39;;;;;;;9.47;2.50;;;;;;;;;;4992719;28;20424;-62
2023/12/11 10:44:04;;;;;;;10.87;2.20;;;;;;;;;;5004906;28;20445;-62
2023/12/11 10:46:30;;;;;;;11.00;2.30;;;;;;;;;;4992167;28;20410;-63
2023/12/11 10:48:55;;;;;;;11.82;2.40;;;;;;;;;;4987848;28;20501;-62
2023/12/11 10:51:21;;;;;;;11.83;2.77;;;;;;;;;;5007324;28;20457;-62
2023/12/11 10:53:46;;;;;;;13.30;2.97;;;;;;;;;;5006974;28;21015;-62
2023/12/11 10:56:11;;;;;;;11.98;2.55;;;;;;;;;;4991975;28;20403;-62
2023/12/11 10:58:37;;;;;;;13.03;2.70;;;;;;;;;;4991531;28;20530;-62
2023/12/11 11:01:02;;;;;;;10.40;2.47;;;;;;;;;;4991518;28;20411;-63
2023/12/11 11:03:29;;;;;;;11.10;2.50;;;;;;;;;;5007344;28;20409;-62
2023/12/11 11:05:54;;;;;;;15.82;2.55;;;;;;;;;;5007599;28;20492;-62
2023/12/11 11:08:24;;;;;;;14.60;2.80;;;;;;;;;;4991253;28;20462;-62
2023/12/11 11:10:51;;;;;;;13.20;2.47;;;;;;;;;;4992186;28;20805;-62
2023/12/11 11:13:16;;;;;;;13.88;2.95;;;;;;;;;;5006803;28;20437;-62
2023/12/11 11:15:41;;;;;;;12.90;2.50;;;;;;;;;;4991817;28;20881;-62
2023/12/11 11:18:09;;;;;;;12.67;2.40;;;;;;;;;;4992096;28;20533;-62
2023/12/11 11:20:36;;;;;;;12.57;3.00;;;;;;;;;;4991845;28;20485;-61
2023/12/11 11:23:15;;;;;;;13.13;2.42;;;;;;;;;;4991240;28;20753;-62
2023/12/11 11:25:41;;;;;;;14.05;3.15;;;;;;;;;;4992409;28;20399;-62
2023/12/11 11:28:06;;;;;;;15.33;2.70;;;;;;;;;;4991704;28;20417;-62
2023/12/11 11:30:41;;;;;;;13.67;3.17;;;;;;;;;;4991742;28;20525;-62
2023/12/11 11:33:08;;;;;;;14.13;2.35;;;;;;;;;;4991633;28;20411;-61
2023/12/11 11:35:52;;;;;;;11.85;2.15;;;;;;;;;;4991457;28;20390;-62
2023/12/11 11:38:18;;;;;;;13.10;3.03;;;;;;;;;;4991266;28;20893;-62
2023/12/11 11:40:44;;;;;;;12.60;2.33;;;;;;;;;;4992032;28;20394;-62
2023/12/11 11:43:10;;;;;;;13.33;2.57;;;;;;;;;;4981995;28;20413;-62
2023/12/11 11:45:36;;;;;;;11.25;2.25;;;;;;;;;;5002482;28;20419;-62
2023/12/11 11:48:01;;;;;;;12.07;2.47;;;;;;;;;;4967215;28;20397;-62
2023/12/11 11:50:26;;;;;;;10.48;2.20;;;;;;;;;;4970609;28;20548;-61
2023/12/11 11:52:57;;;;;;;13.47;2.20;;;;;;;;;;4977846;28;20943;-61
2023/12/11 11:55:25;;;;;;;12.60;2.40;;;;;;;;;;5006469;28;20407;-61
2023/12/11 11:57:50;;;;;;;11.13;2.20;;;;;;;;;;4990590;28;20437;-60
2023/12/11 12:00:23;;;;;;;11.77;2.22;;;;;;;;;;4991047;28;20789;-61
2023/12/11 12:02:56;;;;;;;12.68;2.67;;;;;;;;;;4991162;28;20923;-61
2023/12/11 12:05:29;;;;;;;9.30;1.90;;;;;;;;;;5073357;27;20388;-61
2023/12/11 12:07:54;;;;;;;13.13;2.10;;;;;;;;;;5066118;28;20759;-61
2023/12/11 12:10:20;;;;;;;8.37;1.90;;;;;;;;;;5066341;28;20429;-61
2023/12/11 12:12:49;;;;;;;11.57;2.50;;;;;;;;;;5066231;28;20416;-61
2023/12/11 12:15:15;;;;;;;10.25;2.30;;;;;;;;;;5066267;28;20424;-61
2023/12/11 12:17:42;;;;;;;8.90;1.90;;;;;;;;;;5066811;28;20918;-61
2023/12/11 12:20:10;;;;;;;8.18;2.00;;;;;;;;;;5065609;28;20558;-61
2023/12/11 12:22:35;;;;;;;11.10;2.45;;;;;;;;;;5066812;28;20393;-60
2023/12/11 12:25:02;;;;;;;9.47;1.73;;;;;;;;;;5064010;28;20405;-62
2023/12/11 12:27:27;;;;;;;7.90;1.85;;;;;;;;;;5066758;28;20783;-61
2023/12/11 12:29:54;;;;;;;8.10;1.80;;;;;;;;;;5066379;28;20903;-60
2023/12/11 12:32:19;;;;;;;6.77;1.60;;;;;;;;;;5065709;28;20472;-61
2023/12/11 12:34:45;;;;;;;7.13;1.55;;;;;;;;;;5048565;28;20945;-60
2023/12/11 12:37:10;;;;;;;9.00;1.60;;;;;;;;;;5065875;28;20831;-61
2023/12/11 12:39:36;;;;;;;9.40;1.38;;;;;;;;;;5080193;28;20395;-60
2023/12/11 12:42:01;;;;;;;9.07;1.87;;;;;;;;;;5086349;28;20470;-62
2023/12/11 12:44:26;;;;;;;9.90;1.90;;;;;;;;;;5074366;28;20405;-60
2023/12/11 12:46:52;;;;;;;9.47;1.93;;;;;;;;;;5065822;28;20401;-61
2023/12/11 12:49:17;;;;;;;8.07;1.80;;;;;;;;;;5060944;28;21010;-61
2023/12/11 12:51:43;;;;;;;9.10;1.80;;;;;;;;;;5065940;28;20431;-60
2023/12/11 12:54:10;;;;;;;10.23;1.75;;;;;;;;;;5065051;27;20400;-60
2023/12/11 12:56:36;;;;;;;8.53;1.80;;;;;;;;;;5070904;28;20391;-60
2023/12/11 12:59:01;;;;;;;11.63;1.77;;;;;;;;;;5085851;27;20491;-61
2023/12/11 13:01:27;;;;;;;7.20;1.50;;;;;;;;;;5085792;27;20388;-60
2023/12/11 13:03:52;;;;;;;9.33;2.00;;;;;;;;;;5089211;28;20500;-60
2023/12/11 13:06:26;;;;;;;10.10;2.03;;;;;;;;;;5066988;27;20418;-61
2023/12/11 13:08:51;;;;;;;8.10;1.60;;;;;;;;;;5085059;27;20403;-60
2023/12/11 13:11:16;;;;;;;8.63;1.70;;;;;;;;;;5085723;27;20975;-60
2023/12/11 13:13:54;;;;;;;8.60;1.70;;;;;;;;;;5067585;28;20402;-60
2023/12/11 13:16:19;;;;;;;9.10;1.90;;;;;;;;;;5085204;27;20492;-61
2023/12/11 13:18:45;;;;;;;8.68;1.67;;;;;;;;;;5092254;28;20484;-60
2023/12/11 13:21:11;;;;;;;7.22;1.50;;;;;;;;;;5087695;28;20427;-61
2023/12/11 13:23:36;;;;;;;7.37;1.40;;;;;;;;;;5072319;28;20447;-60
2023/12/11 13:26:01;;;;;;;7.80;1.60;;;;;;;;;;5053834;28;20840;-61
2023/12/11 13:28:27;;;;;;;8.70;1.60;;;;;;;;;;5071511;28;20398;-60
2023/12/11 13:30:52;;;;;;;8.73;1.48;;;;;;;;;;5054229;28;20400;-60
2023/12/11 13:33:17;;;;;;;7.60;1.60;;;;;;;;;;5071617;28;20406;-60
2023/12/11 13:35:42;;;;;;;9.23;1.90;;;;;;;;;;5071344;28;20388;-60
2023/12/11 13:38:08;;;;;;;7.03;1.50;;;;;;;;;;5073536;28;20394;-61
2023/12/11 13:40:33;;;;;;;9.37;1.90;;;;;;;;;;5092168;28;20386;-60
2023/12/11 13:42:58;;;;;;;6.83;1.60;;;;;;;;;;5091379;28;20469;-60
2023/12/11 13:45:24;;;;;;;6.25;1.30;;;;;;;;;;5073896;28;20884;-60
2023/12/11 13:47:49;;;;;;;8.13;1.83;;;;;;;;;;5071457;28;20414;-60
2023/12/11 13:50:15;;;;;;;6.40;1.40;;;;;;;;;;5067659;28;20398;-60
2023/12/11 13:52:40;;;;;;;8.00;1.83;;;;;;;;;;5071659;28;20408;-60
2023/12/11 13:55:05;;;;;;;7.57;1.80;;;;;;;;;;5071083;28;20461;-61
2023/12/11 13:57:32;;;;;;;7.97;1.63;;;;;;;;;;5085004;28;20416;-60
2023/12/11 13:59:58;;;;;;;8.13;1.63;;;;;;;;;;5092159;28;20429;-60
2023/12/11 14:02:23;;;;;;;8.43;1.70;;;;;;;;;;5090786;28;20391;-60
2023/12/11 14:04:49;;;;;;;7.70;1.58;;;;;;;;;;5079190;28;20494;-60
2023/12/11 14:07:14;;;;;;;9.00;1.90;;;;;;;;;;5070750;28;20406;-61
2023/12/11 14:09:40;;;;;;;9.60;2.00;;;;;;;;;;5071272;28;20392;-60
2023/12/11 14:12:06;;;;;;;8.48;1.60;;;;;;;;;;5070441;28;20400;-61
2023/12/11 14:14:31;;;;;;;6.30;1.70;;;;;;;;;;5071422;28;20395;-60
2023/12/11 14:16:56;;;;;;;7.97;1.40;;;;;;;;;;5071217;28;20412;-60
2023/12/11 14:19:22;;;;;;;7.10;1.77;;;;;;;;;;5052130;28;20404;-60
2023/12/11 14:21:47;;;;;;;7.60;1.83;;;;;;;;;;5071181;28;20396;-60
2023/12/11 14:24:12;;;;;;;8.00;1.60;;;;;;;;;;5070322;28;20408;-61
2023/12/11 14:26:38;;;;;;;8.63;1.63;;;;;;;;;;5069812;28;20388;-60
2023/12/11 14:29:03;;;;;;;9.83;1.73;;;;;;;;;;5070451;28;20396;-61
2023/12/11 14:31:28;;;;;;;8.48;2.10;;;;;;;;;;5065980;28;20757;-60
2023/12/11 14:33:54;;;;;;;12.20;1.80;;;;;;;;;;5050826;28;20412;-61
2023/12/11 14:36:19;;;;;;;9.53;1.70;;;;;;;;;;5052635;28;20416;-60
2023/12/11 14:38:44;;;;;;;6.90;1.60;;;;;;;;;;5053160;28;20397;-60
2023/12/11 14:41:10;;;;;;;8.03;1.80;;;;;;;;;;5046552;28;20405;-61
2023/12/11 14:43:35;;;;;;;8.75;1.95;;;;;;;;;;5062559;28;20416;-60
2023/12/11 14:46:01;;;;;;;8.17;2.03;;;;;;;;;;5043523;28;20832;-63
2023/12/11 14:48:26;;;;;;;10.37;1.80;;;;;;;;;;5039578;28;20385;-60
2023/12/11 14:50:54;;;;;;;8.32;2.28;;;;;;;;;;5052534;28;20421;-60
2023/12/11 14:53:19;;;;;;;9.85;2.00;;;;;;;;;;5062774;28;20493;-60
2023/12/11 14:55:44;;;;;;;8.35;2.35;;;;;;;;;;5063959;28;20395;-60
2023/12/11 14:58:10;;;;;;;7.57;1.60;;;;;;;;;;5044491;28;20737;-61
2023/12/11 15:00:35;;;;;;;8.40;1.67;;;;;;;;;;5044992;28;20393;-60
2023/12/11 15:03:00;;;;;;;6.43;1.60;;;;;;;;;;5043857;28;20493;-64
2023/12/11 15:05:26;;;;;;;8.33;2.10;;;;;;;;;;5044467;28;20389;-60
2023/12/11 15:07:51;;;;;;;8.63;1.80;;;;;;;;;;5054535;28;20395;-60
2023/12/11 15:10:16;;;;;;;8.00;2.23;;;;;;;;;;5063049;28;20705;-61
2023/12/11 15:12:41;;;;;;;9.15;2.30;;;;;;;;;;5063224;28;20392;-60
2023/12/11 15:15:07;;;;;;;7.87;1.90;;;;;;;;;;5063147;28;20452;-61
2023/12/11 15:17:32;;;;;;;9.90;1.93;;;;;;;;;;5063321;28;20957;-60
2023/12/11 15:19:58;;;;;;;7.43;1.67;;;;;;;;;;5063772;28;20922;-61
2023/12/11 15:22:23;;;;;;;6.57;1.50;;;;;;;;;;5043150;28;20932;-61
2023/12/11 15:24:48;;;;;;;6.43;1.73;;;;;;;;;;5043977;28;20401;-60
2023/12/11 15:27:14;;;;;;;7.03;1.53;;;;;;;;;;5062641;28;20388;-61
2023/12/11 15:29:39;;;;;;;8.23;1.60;;;;;;;;;;5061831;28;20388;-60
2023/12/11 15:32:04;;;;;;;7.17;1.60;;;;;;;;;;5043457;28;20433;-61
2023/12/11 15:34:30;;;;;;;6.70;1.60;;;;;;;;;;5044092;28;20475;-60
2023/12/11 15:36:55;;;;;;;8.00;1.70;;;;;;;;;;5044045;28;20855;-60
2023/12/11 15:39:23;;;;;;;7.07;1.83;;;;;;;;;;5042769;28;20892;-61